createdAt,value
2022-08-25T00:04:14.646Z,53.80
2022-08-25T00:09:20.406Z,53.80
2022-08-25T00:14:30.254Z,53.94
2022-08-25T00:19:37.251Z,54.17
2022-08-25T00:24:41.036Z,54.63
2022-08-25T00:29:46.895Z,54.46
2022-08-25T00:34:50.665Z,54.37
2022-08-25T00:39:57.422Z,54.32
2022-08-25T00:45:02.819Z,55.14
2022-08-25T00:50:11.656Z,55.61
2022-08-25T00:55:20.015Z,55.49
2022-08-25T01:00:28.727Z,55.81
2022-08-25T01:05:32.559Z,55.35
2022-08-25T01:10:38.036Z,55.23
2022-08-25T01:15:43.134Z,55.12
2022-08-25T01:20:51.106Z,55.01
2022-08-25T01:26:03.219Z,55.27
2022-08-25T01:31:23.831Z,55.07
2022-08-25T01:36:31.227Z,54.96
2022-08-25T01:41:46.416Z,55.08
2022-08-25T01:46:50.256Z,55.59
2022-08-25T01:52:01.792Z,55.89
2022-08-25T01:57:05.868Z,55.45
2022-08-25T02:02:10.555Z,55.49
2022-08-25T02:07:15.550Z,56.28
2022-08-25T02:12:19.066Z,55.99
2022-08-25T02:17:42.503Z,56.40
2022-08-25T02:22:51.141Z,56.56
2022-08-25T02:28:00.207Z,56.40
2022-08-25T02:33:04.086Z,56.88
2022-08-25T02:38:10.680Z,57.20
2022-08-25T02:43:14.094Z,57.00
2022-08-25T02:48:17.602Z,56.91
2022-08-25T02:53:23.512Z,56.55
2022-08-25T02:58:27.910Z,56.13
2022-08-25T03:03:31.411Z,55.89
2022-08-25T03:08:36.663Z,55.59
2022-08-25T03:13:40.391Z,55.49
2022-08-25T03:18:44.474Z,55.00
2022-08-25T03:23:49.658Z,54.37
2022-08-25T03:28:55.788Z,54.47
2022-08-25T03:33:59.861Z,53.68
2022-08-25T03:39:06.254Z,53.33
2022-08-25T03:44:11.338Z,53.04
2022-08-25T03:49:16.915Z,53.07
2022-08-25T03:54:24.393Z,52.32
2022-08-25T03:59:29.741Z,51.59
2022-08-25T04:04:34.224Z,48.24
2022-08-25T04:09:40.146Z,37.51
2022-08-25T04:14:44.268Z,33.02
2022-08-25T04:19:47.727Z,30.49
2022-08-25T04:24:53.248Z,27.32
2022-08-25T04:29:56.949Z,24.45
2022-08-25T04:35:00.597Z,27.36
2022-08-25T04:40:08.071Z,29.01
2022-08-25T04:45:11.868Z,25.60
2022-08-25T04:50:15.459Z,22.40
2022-08-25T04:55:20.396Z,19.86
2022-08-25T05:00:24.264Z,18.55
2022-08-25T05:05:28.142Z,17.97
2022-08-25T05:10:34.027Z,16.05
2022-08-25T05:15:52.694Z,16.61
2022-08-25T05:20:57.365Z,20.21
2022-08-25T05:26:07.772Z,24.74
2022-08-25T05:31:14.575Z,25.81
2022-08-25T05:36:19.851Z,22.54
2022-08-25T05:41:29.015Z,18.46
2022-08-25T05:46:32.436Z,16.79
2022-08-25T05:51:35.973Z,14.10
2022-08-25T05:56:41.390Z,13.07
2022-08-25T06:02:01.488Z,13.36
2022-08-25T06:07:04.945Z,12.97
2022-08-25T06:12:11.463Z,12.81
2022-08-25T06:17:15.090Z,12.46
2022-08-25T06:22:18.784Z,10.72
2022-08-25T06:27:23.613Z,9.65
2022-08-25T06:32:27.115Z,9.12
2022-08-25T06:37:30.820Z,9.13
2022-08-25T06:42:36.443Z,8.20
2022-08-25T06:47:40.025Z,7.38
2022-08-25T06:52:43.511Z,7.11
2022-08-25T06:57:49.146Z,6.97
2022-08-25T07:02:52.686Z,8.25
2022-08-25T07:07:57.162Z,7.52
2022-08-25T07:13:02.438Z,7.22
2022-08-25T07:18:06.544Z,7.02
2022-08-25T07:23:10.098Z,6.07
2022-08-25T07:28:15.739Z,6.41
2022-08-25T07:33:19.209Z,6.81
2022-08-25T07:38:23.090Z,7.04
2022-08-25T07:43:28.396Z,7.08
2022-08-25T07:48:33.291Z,6.46
2022-08-25T07:53:37.535Z,6.96
2022-08-25T07:58:43.523Z,7.10
2022-08-25T08:03:50.849Z,7.83
2022-08-25T08:08:57.828Z,8.64
2022-08-25T08:14:04.724Z,8.84
2022-08-25T08:19:08.142Z,10.00
2022-08-25T08:24:25.063Z,10.26
2022-08-25T08:29:38.255Z,11.11
2022-08-25T08:34:44.328Z,11.65
2022-08-25T08:39:48.340Z,12.01
2022-08-25T08:45:21.838Z,12.68
2022-08-25T08:50:33.584Z,14.46
2022-08-25T08:55:41.981Z,14.77
2022-08-25T09:00:52.212Z,14.49
2022-08-25T09:06:02.082Z,14.71
2022-08-25T09:11:14.873Z,14.68
2022-08-25T09:16:46.764Z,14.97
2022-08-25T09:21:58.739Z,15.61
2022-08-25T09:27:11.716Z,15.23
2022-08-25T09:32:24.130Z,14.71
2022-08-25T09:37:29.542Z,14.62
2022-08-25T09:42:51.231Z,14.97
2022-08-25T09:48:03.741Z,15.10
2022-08-25T09:53:18.604Z,15.90
2022-08-25T09:58:25.540Z,16.83
2022-08-25T10:03:31.606Z,17.31
2022-08-25T10:08:53.064Z,16.72
2022-08-25T10:14:03.814Z,16.36
2022-08-25T10:19:12.894Z,16.60
2022-08-25T10:24:16.658Z,17.51
2022-08-25T10:29:38.549Z,17.48
2022-08-25T10:34:51.739Z,17.89
2022-08-25T10:40:16.610Z,17.41
2022-08-25T10:45:41.697Z,17.82
2022-08-25T10:50:50.838Z,18.39
2022-08-25T10:56:07.588Z,17.74
2022-08-25T11:01:19.778Z,18.30
2022-08-25T11:06:40.322Z,18.39
2022-08-25T11:11:51.293Z,18.83
2022-08-25T11:17:05.052Z,18.40
2022-08-25T11:22:19.291Z,18.40
2022-08-25T11:27:24.717Z,18.59
2022-08-25T11:32:33.657Z,18.88
2022-08-25T11:37:47.183Z,18.89
2022-08-25T11:43:01.941Z,18.22
2022-08-25T11:48:19.308Z,18.61
2022-08-25T11:53:28.953Z,19.05
2022-08-25T11:58:46.766Z,19.23
2022-08-25T12:04:14.920Z,18.99
2022-08-25T12:09:23.606Z,18.79
2022-08-25T12:14:48.088Z,18.94
2022-08-25T12:19:55.794Z,18.66
2022-08-25T12:25:10.046Z,19.12
2022-08-25T12:30:21.107Z,19.36
2022-08-25T12:35:30.653Z,19.36
2022-08-25T12:40:39.394Z,19.68
2022-08-25T12:45:45.493Z,19.73
2022-08-25T12:50:58.328Z,19.68
2022-08-25T12:56:07.217Z,19.35
2022-08-25T13:01:35.279Z,18.86
2022-08-25T13:06:55.774Z,19.32
2022-08-25T13:12:08.924Z,19.89
2022-08-25T13:17:25.856Z,19.50
2022-08-25T13:22:29.462Z,19.25
2022-08-25T13:27:38.555Z,19.48
2022-08-25T13:32:42.396Z,19.37
2022-08-25T13:37:46.162Z,19.53
2022-08-25T13:42:56.151Z,20.14
2022-08-25T13:48:01.695Z,20.24
2022-08-25T13:53:12.584Z,20.65
2022-08-25T13:58:24.332Z,21.16
2022-08-25T14:03:33.437Z,21.26
2022-08-25T14:08:40.524Z,21.78
2022-08-25T14:13:46.391Z,21.80
2022-08-25T14:18:53.483Z,21.79
2022-08-25T14:23:58.865Z,21.69
2022-08-25T14:29:04.865Z,22.08
2022-08-25T14:34:16.828Z,22.85
2022-08-25T14:39:23.541Z,22.58
2022-08-25T14:44:28.419Z,22.66
2022-08-25T14:49:38.452Z,22.57
2022-08-25T14:54:42.147Z,23.05
2022-08-25T14:59:47.882Z,24.00
2022-08-25T15:04:54.146Z,23.60
2022-08-25T15:09:57.706Z,23.86
2022-08-25T15:15:04.155Z,25.08
2022-08-25T15:20:09.621Z,25.43
2022-08-25T15:25:15.525Z,25.31
2022-08-25T15:30:20.516Z,25.23
2022-08-25T15:35:23.983Z,25.50
2022-08-25T15:40:37.964Z,25.96
2022-08-25T15:45:42.973Z,26.69
2022-08-25T15:50:47.451Z,26.75
2022-08-25T15:55:54.078Z,26.87
2022-08-25T16:00:59.235Z,29.16
2022-08-25T16:06:05.422Z,30.05
2022-08-25T16:11:18.778Z,31.60
2022-08-25T16:16:25.851Z,31.40
2022-08-25T16:21:36.191Z,32.34
2022-08-25T16:26:48.495Z,32.97
2022-08-25T16:31:55.151Z,33.00
2022-08-25T16:37:00.343Z,34.61
2022-08-25T16:42:03.849Z,35.77
2022-08-25T16:47:09.417Z,37.53
2022-08-25T16:52:28.427Z,38.56
2022-08-25T16:57:32.163Z,39.36
2022-08-25T17:02:36.822Z,38.53
2022-08-25T17:07:43.334Z,40.26
2022-08-25T17:12:46.814Z,40.97
2022-08-25T17:17:51.727Z,41.39
2022-08-25T17:22:55.191Z,41.73
2022-08-25T17:27:59.099Z,42.02
2022-08-25T17:33:07.563Z,42.97
2022-08-25T17:38:13.052Z,43.39
2022-08-25T17:43:16.455Z,44.19
2022-08-25T17:48:24.194Z,44.78
2022-08-25T17:53:31.003Z,44.75
2022-08-25T17:58:36.490Z,44.91
2022-08-25T18:03:41.490Z,45.48
2022-08-25T18:08:51.645Z,45.49
2022-08-25T18:13:57.417Z,45.92
2022-08-25T18:19:03.085Z,45.58
2022-08-25T18:24:10.646Z,45.89
2022-08-25T18:29:14.462Z,46.87
2022-08-25T18:34:24.139Z,46.79
2022-08-25T18:39:45.262Z,46.80
2022-08-25T18:44:48.686Z,46.99
2022-08-25T18:49:53.822Z,48.08
2022-08-25T18:54:58.207Z,47.67
2022-08-25T19:00:02.823Z,48.42
2022-08-25T19:05:09.701Z,48.61
2022-08-25T19:10:14.633Z,49.30
2022-08-25T19:15:18.333Z,49.61
2022-08-25T19:20:35.054Z,50.25
2022-08-25T19:25:41.728Z,49.99
2022-08-25T19:30:50.470Z,50.12
2022-08-25T19:35:55.974Z,50.07
2022-08-25T19:41:01.830Z,50.28
2022-08-25T19:46:06.210Z,50.17
2022-08-25T19:51:11.797Z,52.96
2022-08-25T19:56:15.433Z,51.41
2022-08-25T20:01:20.933Z,50.94
2022-08-25T20:06:27.759Z,51.63
2022-08-25T20:11:33.589Z,51.77
2022-08-25T20:16:37.378Z,52.20
2022-08-25T20:21:44.534Z,52.27
2022-08-25T20:26:48.072Z,52.07
2022-08-25T20:31:52.943Z,51.92
2022-08-25T20:36:58.483Z,52.24
2022-08-25T20:42:04.129Z,52.15
2022-08-25T20:47:10.820Z,51.83
2022-08-25T20:52:16.335Z,51.91
2022-08-25T20:57:25.486Z,52.38
2022-08-25T21:02:30.674Z,52.07
2022-08-25T21:07:36.182Z,52.25
2022-08-25T21:12:40.103Z,52.01
2022-08-25T21:17:45.653Z,52.31
2022-08-25T21:22:52.207Z,52.44
2022-08-25T21:27:57.023Z,52.56
2022-08-25T21:33:02.176Z,52.62
2022-08-25T21:38:08.039Z,52.04
2022-08-25T21:43:12.068Z,52.37
2022-08-25T21:48:17.001Z,52.63
2022-08-25T21:53:22.156Z,52.98
2022-08-25T21:58:25.825Z,52.67
2022-08-25T22:03:31.361Z,53.17
2022-08-25T22:08:38.916Z,53.17
2022-08-25T22:13:44.256Z,53.04
2022-08-25T22:18:48.971Z,53.06
2022-08-25T22:23:56.108Z,53.19
2022-08-25T22:29:00.672Z,53.71
2022-08-25T22:34:06.271Z,53.92
2022-08-25T22:39:11.687Z,53.87
2022-08-25T22:44:15.751Z,54.93
2022-08-25T22:49:19.458Z,54.76
2022-08-25T22:54:25.759Z,54.87
2022-08-25T22:59:30.318Z,54.95
2022-08-25T23:04:34.001Z,55.02
2022-08-25T23:09:39.526Z,56.31
2022-08-25T23:14:44.365Z,55.79
2022-08-25T23:19:47.988Z,55.97
2022-08-25T23:24:53.810Z,56.75
2022-08-25T23:29:57.477Z,56.95
2022-08-25T23:35:00.900Z,56.98
2022-08-25T23:40:06.896Z,57.80
2022-08-25T23:45:11.314Z,58.52
2022-08-25T23:50:15.474Z,57.58
2022-08-25T23:55:20.390Z,56.42
